Time;durP1;ratioP1;P1;durP2;ratioP2;P2;SDS_P1;SDS_P2;PMS_P1;PMS_P2;Temp;Humidity;BMP_temperature;BMP_pressure;BME280_temperature;BME280_humidity;BME280_pressure;Samples;Min_cycle;Max_cycle;Signal;HPM_P1;HPM_P2
2022/01/30 00:00:36;;;;;;;19.83;7.53;;;;;;;-2.67;65.29;95574.09;4916901;29;20490;-79
2022/01/30 00:03:02;;;;;;;16.40;7.80;;;;;;;-2.93;64.99;95533.06;4915173;29;20048;-79
2022/01/30 00:05:28;;;;;;;20.92;8.13;;;;;;;-1.94;64.39;95697.84;4916860;29;20546;-79
2022/01/30 00:07:54;;;;;;;18.38;8.43;;;;;;;-2.54;64.44;95587.25;4947106;29;20036;-80
2022/01/30 00:10:20;;;;;;;19.77;8.52;;;;;;;-2.50;64.71;95572.91;4916960;29;20423;-79
2022/01/30 00:12:50;;;;;;;16.00;8.05;;;;;;;-2.38;65.22;95588.84;4914704;29;20036;-79
2022/01/30 00:15:17;;;;;;;18.27;7.25;;;;;;;-1.87;65.61;95684.91;4914937;29;20036;-79
2022/01/30 00:17:53;;;;;;;22.00;8.52;;;;;;;-1.83;65.49;95676.56;4916816;29;20394;-80
2022/01/30 00:20:22;;;;;;;16.80;7.88;;;;;;;-2.70;65.11;95552.91;4916354;29;20095;-80
2022/01/30 00:22:56;;;;;;;19.30;7.10;;;;;;;-2.19;64.99;95631.59;4914756;29;20096;-79
2022/01/30 00:25:33;;;;;;;14.57;7.47;;;;;;;-1.95;65.33;95645.06;4914949;29;20040;-79
2022/01/30 00:28:05;;;;;;;10.57;6.07;;;;;;;-1.85;64.46;95659.56;4946742;29;20039;-79
2022/01/30 00:30:49;;;;;;;8.80;4.67;;;;;;;-2.82;64.75;95545.56;1865753;28;10021728;-79
2022/01/30 00:33:15;;;;;;;11.50;6.38;;;;;;;-2.41;65.13;95608.19;3898863;29;10001477;-79
2022/01/30 00:35:41;;;;;;;16.70;7.35;;;;;;;-2.46;65.36;95591.53;4915630;29;20048;-79
2022/01/30 00:38:11;;;;;;;14.00;6.85;;;;;;;-2.07;65.24;95643.94;4916422;29;20107;-79
2022/01/30 00:40:38;;;;;;;14.85;7.00;;;;;;;-1.91;65.14;95645.50;4915477;29;20039;-79
2022/01/30 00:43:04;;;;;;;11.90;5.88;;;;;;;-2.28;64.55;95589.31;4915813;29;20230;-79
2022/01/30 00:45:30;;;;;;;13.98;7.18;;;;;;;-2.49;65.48;95594.50;4916195;29;20035;-79
2022/01/30 00:47:56;;;;;;;11.30;6.88;;;;;;;-2.14;65.08;95640.47;4946015;29;20636;-80
2022/01/30 00:50:22;;;;;;;12.40;6.47;;;;;;;-2.60;65.54;95582.00;4915730;29;20044;-80
2022/01/30 00:52:53;;;;;;;18.50;6.90;;;;;;;-2.43;65.44;95632.72;4915963;29;20036;-79
2022/01/30 00:55:20;;;;;;;17.25;6.70;;;;;;;-2.20;65.48;95635.97;4945935;29;20031;-79
2022/01/30 00:57:45;;;;;;;15.35;6.50;;;;;;;-2.60;65.35;95562.03;4929946;29;20040;-79
2022/01/30 01:00:14;;;;;;;20.50;7.43;;;;;;;-2.64;65.64;95552.16;4945523;28;20062;-80
2022/01/30 01:02:39;;;;;;;18.80;7.88;;;;;;;-3.13;65.04;95469.78;4915990;29;20036;-80
2022/01/30 01:05:06;;;;;;;16.73;7.50;;;;;;;-1.96;65.81;95617.44;4915056;29;20044;-79
2022/01/30 01:07:33;;;;;;;43.58;15.35;;;;;;;-1.94;66.44;95614.66;4915570;29;20452;-80
2022/01/30 01:10:14;;;;;;;45.80;19.42;;;;;;;-2.75;67.01;95484.16;4915997;29;20050;-79
2022/01/30 01:23:41;;;;;;;44.28;17.98;;;;;;;-3.17;67.84;95430.41;4915369;29;20123;-79
2022/01/30 01:26:06;;;;;;;47.20;19.88;;;;;;;-2.23;67.99;95584.41;4915163;29;20036;-79
2022/01/30 01:28:32;;;;;;;44.00;17.90;;;;;;;-2.46;67.18;95539.59;4915882;29;20043;-79
2022/01/30 01:30:58;;;;;;;46.70;19.10;;;;;;;-3.12;67.80;95479.94;4915427;29;20051;-79
2022/01/30 01:33:28;;;;;;;45.38;18.38;;;;;;;-3.22;68.85;95469.06;4915275;29;20123;-79
2022/01/30 01:35:54;;;;;;;50.67;19.67;;;;;;;-2.45;69.33;95578.38;4945915;29;20040;-79
2022/01/30 01:38:21;;;;;;;53.05;20.65;;;;;;;-3.10;68.45;95456.41;4915608;29;20051;-79
2022/01/30 01:40:51;;;;;;;41.70;18.67;;;;;;;-2.76;69.01;95511.13;4915300;29;20036;-79
2022/01/30 01:43:22;;;;;;;50.10;20.47;;;;;;;-3.18;68.73;95441.75;4914812;29;20044;-79
2022/01/30 01:45:50;;;;;;;52.92;21.50;;;;;;;-2.38;69.42;95555.06;4914964;29;20096;-79
2022/01/30 01:48:15;;;;;;;50.58;22.33;;;;;;;-2.86;69.36;95500.22;4945566;29;20040;-80
2022/01/30 01:50:45;;;;;;;48.38;22.05;;;;;;;-2.61;69.48;95538.84;4915438;29;20056;-79
2022/01/30 01:53:15;;;;;;;49.88;21.08;;;;;;;-2.51;69.63;95549.72;4915383;29;20115;-79
2022/01/30 01:55:42;;;;;;;49.47;21.00;;;;;;;-2.60;68.88;95532.66;4945758;29;20514;-79
2022/01/30 01:58:08;;;;;;;51.95;22.17;;;;;;;-3.27;68.85;95445.44;4945754;29;20051;-79
2022/01/30 02:00:34;;;;;;;45.78;20.88;;;;;;;-2.50;69.10;95531.34;4914995;29;20052;-79
2022/01/30 02:03:00;;;;;;;55.42;20.60;;;;;;;-2.81;69.16;95499.66;4915328;29;20131;-79
2022/01/30 02:05:27;;;;;;;47.05;21.08;;;;;;;-3.14;69.71;95427.47;4915064;29;20120;-80
2022/01/30 02:10:32;;;;;;;54.90;23.85;;;;;;;-3.07;69.38;95434.50;4915261;29;20131;-79
2022/01/30 02:13:11;;;;;;;45.13;20.45;;;;;;;-2.49;69.41;95532.97;4914899;29;20032;-79
2022/01/30 02:24:10;;;;;;;41.67;17.48;;;;;;;-3.00;68.60;95523.59;4918335;29;20096;-80
2022/01/30 02:26:44;;;;;;;40.38;17.08;;;;;;;-2.78;68.26;95528.66;4918326;29;20119;-79
2022/01/30 02:29:12;;;;;;;36.55;16.90;;;;;;;-3.21;68.10;95490.63;4575477;28;10000652;-79
2022/01/30 02:31:40;;;;;;;36.28;16.40;;;;;;;-3.54;67.27;95415.00;676520;28;10001938;-82
2022/01/30 02:34:06;;;;;;;40.72;17.13;;;;;;;-2.91;68.10;95502.56;4493009;28;10000543;-82
2022/01/30 02:36:32;;;;;;;43.17;16.95;;;;;;;-3.38;67.61;95440.72;677170;28;10001858;-81
2022/01/30 02:38:59;;;;;;;33.88;14.82;;;;;;;-2.91;67.03;95512.94;4948707;29;20302;-81
2022/01/30 02:41:25;;;;;;;35.30;16.02;;;;;;;-2.92;67.19;95500.16;4916521;29;20563;-81
2022/01/30 02:44:11;;;;;;;35.67;14.75;;;;;;;-3.70;67.36;95391.84;4932576;29;20120;-81
2022/01/30 02:46:42;;;;;;;29.42;14.10;;;;;;;-3.00;68.42;95461.31;4947980;29;20558;-81
2022/01/30 02:52:04;;;;;;;30.98;13.88;;;;;;;-2.83;67.36;95478.28;4918469;29;20487;-81
2022/01/30 02:54:31;;;;;;;33.88;14.35;;;;;;;-3.33;68.18;95440.97;4916133;29;20388;-82
2022/01/30 02:56:57;;;;;;;31.70;14.60;;;;;;;-3.04;68.06;95475.63;4918254;29;20119;-81
2022/01/30 02:59:23;;;;;;;41.05;17.15;;;;;;;-3.13;68.61;95433.44;4918632;29;20087;-82
2022/01/30 03:01:49;;;;;;;37.97;15.30;;;;;;;-4.43;67.75;95242.50;4949601;29;20059;-82
2022/01/30 03:04:15;;;;;;;33.42;15.80;;;;;;;-3.79;68.70;95372.19;4933027;29;20044;-82
2022/01/30 03:06:41;;;;;;;41.47;17.10;;;;;;;-3.24;68.18;95418.34;4949012;29;20040;-81
2022/01/30 03:09:08;;;;;;;33.30;15.93;;;;;;;-2.93;69.28;95457.00;4948256;29;20434;-81
2022/01/30 03:11:34;;;;;;;36.85;16.38;;;;;;;-3.77;68.01;95314.03;4918010;29;20040;-81
2022/01/30 03:14:01;;;;;;;30.65;15.65;;;;;;;-2.79;67.69;95463.94;4948198;29;20036;-81
2022/01/30 03:16:27;;;;;;;35.00;16.73;;;;;;;-3.11;67.74;95427.06;4917589;29;20076;-81
2022/01/30 03:18:53;;;;;;;35.90;16.85;;;;;;;-3.31;68.38;95388.94;4917570;29;20076;-81
2022/01/30 03:21:19;;;;;;;38.47;17.88;;;;;;;-3.24;68.27;95403.59;4917297;29;20040;-81
2022/01/30 03:23:45;;;;;;;37.22;18.45;;;;;;;-3.93;68.62;95309.06;4917219;29;20035;-81
2022/01/30 03:26:12;;;;;;;41.53;18.67;;;;;;;-3.22;68.62;95403.41;4947627;29;20059;-81
2022/01/30 03:28:40;;;;;;;43.13;19.38;;;;;;;-3.29;68.71;95416.31;4947557;28;20175;-80
2022/01/30 03:31:08;;;;;;;39.05;17.85;;;;;;;-3.60;67.80;95343.13;4916884;29;20115;-81
2022/01/30 03:33:33;;;;;;;37.97;18.02;;;;;;;-3.67;69.02;95350.03;4919049;29;20590;-82
2022/01/30 03:35:59;;;;;;;40.50;18.77;;;;;;;-3.58;69.08;95373.06;4917016;29;20096;-81
2022/01/30 03:38:25;;;;;;;39.83;17.77;;;;;;;-3.16;68.94;95439.81;4917520;29;20040;-82
2022/01/30 03:40:51;;;;;;;46.22;20.67;;;;;;;-4.05;69.16;95334.63;4916800;29;20040;-81
2022/01/30 03:43:18;;;;;;;44.58;19.27;;;;;;;-4.04;69.90;95333.63;4916830;29;20064;-81
2022/01/30 03:45:45;;;;;;;49.47;19.80;;;;;;;-3.04;70.05;95479.03;4916851;29;20040;-81
2022/01/30 03:48:12;;;;;;;49.20;22.02;;;;;;;-3.21;68.47;95449.13;4947156;28;20043;-80
2022/01/30 03:50:38;;;;;;;53.85;25.27;;;;;;;-3.59;68.80;95405.19;4917116;29;20254;-80
2022/01/30 03:53:03;;;;;;;51.33;25.92;;;;;;;-3.21;68.52;95475.88;4947030;28;20036;-80
2022/01/30 03:55:29;;;;;;;53.35;24.17;;;;;;;-3.12;69.75;95471.34;4916114;29;20031;-80
2022/01/30 03:57:54;;;;;;;53.63;24.13;;;;;;;-3.32;68.84;95450.38;4947483;28;20040;-81
2022/01/30 04:00:20;;;;;;;49.38;24.10;;;;;;;-3.31;69.42;95458.97;4916850;29;20471;-81
2022/01/30 04:02:46;;;;;;;44.78;23.25;;;;;;;-4.00;68.86;95349.63;4947142;29;20091;-80
2022/01/30 04:05:11;;;;;;;49.50;22.27;;;;;;;-3.69;70.13;95383.91;4946771;29;20032;-81
2022/01/30 04:07:37;;;;;;;51.75;21.52;;;;;;;-3.84;69.50;95367.56;4946564;28;20103;-81
2022/01/30 04:10:05;;;;;;;64.25;28.65;;;;;;;-3.16;69.10;95451.97;4946994;29;20039;-81
2022/01/30 04:12:31;;;;;;;50.92;23.58;;;;;;;-3.22;68.90;95461.28;4916614;29;20047;-81
2022/01/30 04:14:57;;;;;;;48.60;21.90;;;;;;;-3.43;69.91;95426.72;4916577;29;20048;-81
2022/01/30 04:17:23;;;;;;;46.35;19.10;;;;;;;-3.25;70.17;95466.00;4916384;29;20036;-81
2022/01/30 04:19:49;;;;;;;35.17;18.50;;;;;;;-3.41;69.69;95424.72;4946427;29;20044;-81
2022/01/30 04:22:15;;;;;;;50.08;20.23;;;;;;;-3.82;69.96;95357.84;4916805;29;20044;-82
2022/01/30 04:24:41;;;;;;;47.65;20.10;;;;;;;-3.37;69.95;95428.56;4916268;29;20040;-81
2022/01/30 04:27:07;;;;;;;48.85;20.58;;;;;;;-3.57;69.23;95371.28;4930426;29;20036;-81
2022/01/30 04:29:32;;;;;;;47.80;19.73;;;;;;;-4.01;69.80;95285.84;4946951;28;20047;-81
2022/01/30 04:31:59;;;;;;;49.42;19.27;;;;;;;-3.26;69.56;95404.75;4946529;29;20040;-81
2022/01/30 04:34:44;;;;;;;44.07;18.92;;;;;;;-3.74;69.54;95315.47;4366956;28;10001188;-81
2022/01/30 04:37:39;;;;;;;33.15;16.05;;;;;;;-3.43;70.16;95367.06;1697230;29;10001939;-81
2022/01/30 05:09:26;;;;;;;40.97;17.70;;;;;;;-3.45;68.13;95330.13;4915794;29;20047;-81
2022/01/30 05:11:53;;;;;;;38.20;17.40;;;;;;;-3.57;67.90;95298.69;4946161;29;20154;-81
2022/01/30 05:14:21;;;;;;;42.25;16.40;;;;;;;-3.27;67.54;95341.69;4915719;29;20044;-81
2022/01/30 05:16:47;;;;;;;35.17;16.30;;;;;;;-3.51;67.45;95300.56;4914581;29;20040;-82
2022/01/30 05:19:13;;;;;;;36.92;17.63;;;;;;;-3.57;67.79;95250.25;4915567;29;20095;-81
2022/01/30 05:21:39;;;;;;;33.67;16.88;;;;;;;-3.53;69.06;95286.97;4915484;29;20072;-81
2022/01/30 05:24:05;;;;;;;41.17;17.50;;;;;;;-3.39;69.45;95272.34;4945714;28;20050;-82
2022/01/30 05:26:31;;;;;;;37.47;16.27;;;;;;;-2.96;69.11;95310.25;4945911;29;20507;-81
2022/01/30 05:28:57;;;;;;;32.00;16.80;;;;;;;-3.05;68.55;95293.22;4945884;28;20036;-81
2022/01/30 05:31:23;;;;;;;36.00;16.15;;;;;;;-3.46;69.16;95225.63;4914534;29;20051;-81
2022/01/30 05:33:49;;;;;;;42.58;18.17;;;;;;;-3.49;68.81;95228.56;4946219;28;20095;-82
2022/01/30 05:36:18;;;;;;;60.80;27.40;;;;;;;-3.11;69.21;95284.38;4915519;29;20036;-82
2022/01/30 05:38:44;;;;;;;60.70;29.30;;;;;;;-3.20;68.59;95269.13;4915492;29;20478;-82
2022/01/30 05:41:09;;;;;;;47.65;19.20;;;;;;;-3.19;68.64;95270.72;4945538;29;20147;-81
2022/01/30 05:43:37;;;;;;;41.28;18.83;;;;;;;-2.77;68.87;95347.75;4945498;29;20123;-81
2022/01/30 05:46:11;;;;;;;44.53;20.20;;;;;;;-2.97;68.20;95344.97;4915409;29;20032;-81
2022/01/30 05:48:37;;;;;;;47.17;19.77;;;;;;;-3.27;68.94;95300.19;4945833;29;20067;-82
2022/01/30 05:51:03;;;;;;;53.08;21.45;;;;;;;-2.67;68.28;95366.41;4917659;29;20048;-82
2022/01/30 05:53:30;;;;;;;41.05;16.48;;;;;;;-2.60;67.81;95356.91;4919096;29;20040;-81
2022/01/30 05:55:55;;;;;;;34.47;16.58;;;;;;;-3.56;67.09;95257.03;4917465;29;20041;-81
2022/01/30 05:58:20;;;;;;;42.13;18.88;;;;;;;-3.09;66.52;95299.78;4949692;29;20047;-82
2022/01/30 06:00:46;;;;;;;40.53;20.40;;;;;;;-3.28;67.84;95264.88;4918580;29;20059;-81
2022/01/30 06:03:11;;;;;;;51.45;22.73;;;;;;;-3.13;67.45;95291.53;4919172;29;20119;-82
2022/01/30 06:05:38;;;;;;;61.97;22.35;;;;;;;-3.24;68.19;95278.28;4918754;29;20164;-82
2022/01/30 06:08:14;;;;;;;41.08;19.00;;;;;;;-3.10;68.63;95298.16;4918236;29;20036;-82
2022/01/30 06:10:39;;;;;;;38.85;17.52;;;;;;;-3.70;68.23;95207.84;4918524;29;20056;-81
2022/01/30 06:13:05;;;;;;;39.83;18.05;;;;;;;-3.48;68.25;95230.19;4917926;29;20099;-81
2022/01/30 06:15:30;;;;;;;38.13;18.33;;;;;;;-2.79;68.28;95306.41;4948896;28;20043;-81
2022/01/30 06:17:56;;;;;;;35.08;17.23;;;;;;;-3.14;67.81;95240.69;4918855;29;20608;-82
2022/01/30 06:20:21;;;;;;;35.58;17.23;;;;;;;-2.68;68.34;95306.91;4918686;29;20043;-81
2022/01/30 06:22:47;;;;;;;26.00;13.85;;;;;;;-3.02;68.82;95246.13;4918641;29;20064;-81
2022/01/30 06:25:13;;;;;;;30.65;13.57;;;;;;;-2.69;68.28;95280.13;4949068;29;20454;-81
2022/01/30 06:27:39;;;;;;;33.10;13.63;;;;;;;-3.00;68.45;95235.59;4918544;29;20091;-80
2022/01/30 06:30:06;;;;;;;34.42;13.75;;;;;;;-2.97;69.10;95279.31;4949269;29;20044;-80
2022/01/30 06:32:31;;;;;;;26.02;10.93;;;;;;;-2.95;68.43;95239.22;4919218;29;20050;-81
2022/01/30 06:35:09;;;;;;;28.27;11.08;;;;;;;-2.47;66.96;95292.06;3398811;28;10021407;-81
2022/01/30 06:37:35;;;;;;;23.38;11.95;;;;;;;-2.63;67.11;95227.44;2204028;29;10001936;-81
2022/01/30 06:40:00;;;;;;;27.90;12.70;;;;;;;-2.37;66.87;95258.78;4918485;29;20356;-81
2022/01/30 06:42:28;;;;;;;37.05;13.65;;;;;;;-2.45;67.13;95232.16;4948597;29;20028;-81
2022/01/30 06:44:53;;;;;;;26.52;12.32;;;;;;;-2.84;66.40;95181.59;4917691;29;20119;-81
2022/01/30 06:47:19;;;;;;;35.17;13.80;;;;;;;-1.87;65.92;95315.78;4918422;29;20044;-81
2022/01/30 06:49:44;;;;;;;24.42;12.25;;;;;;;-2.46;66.04;95270.31;4917851;29;20040;-81
2022/01/30 06:52:11;;;;;;;30.10;12.50;;;;;;;-1.99;65.59;95326.75;4918462;29;20099;-81
2022/01/30 06:54:37;;;;;;;28.45;11.82;;;;;;;-2.57;65.85;95228.47;4918184;29;20062;-81
2022/01/30 06:57:04;;;;;;;31.15;12.38;;;;;;;-1.87;65.89;95313.19;4918379;29;20043;-81
2022/01/30 06:59:29;;;;;;;30.02;11.82;;;;;;;-1.85;65.18;95300.78;4932476;29;20060;-81
2022/01/30 07:01:55;;;;;;;23.13;11.20;;;;;;;-2.12;64.66;95247.88;4931570;29;20132;-81
2022/01/30 07:04:20;;;;;;;26.88;12.32;;;;;;;-1.88;65.46;95293.38;4918155;29;20051;-81
2022/01/30 07:06:46;;;;;;;26.58;12.15;;;;;;;-1.85;64.73;95298.19;4918341;29;20032;-81
2022/01/30 07:09:11;;;;;;;36.17;14.15;;;;;;;-2.45;64.91;95190.59;4933757;29;20499;-81
2022/01/30 07:11:37;;;;;;;25.55;11.15;;;;;;;-2.36;64.94;95208.41;4917711;29;20032;-81
2022/01/30 07:14:02;;;;;;;27.35;11.27;;;;;;;-2.52;63.69;95184.59;4932730;29;20056;-81
2022/01/30 07:16:27;;;;;;;22.90;11.25;;;;;;;-2.46;63.56;95176.81;4916667;29;20036;-81
2022/01/30 07:18:53;;;;;;;27.02;11.48;;;;;;;-2.65;64.98;95166.31;4918139;29;20527;-81
2022/01/30 07:21:18;;;;;;;26.30;11.50;;;;;;;-2.05;64.65;95243.50;4917781;29;20054;-81
2022/01/30 07:23:44;;;;;;;22.75;11.80;;;;;;;-1.74;63.89;95295.84;4918047;29;20075;-81
2022/01/30 07:26:09;;;;;;;34.17;12.43;;;;;;;-1.81;63.42;95294.19;4918375;29;20060;-82
2022/01/30 07:28:35;;;;;;;26.05;12.48;;;;;;;-2.65;63.99;95141.16;4932303;29;20119;-81
2022/01/30 07:31:00;;;;;;;27.98;12.05;;;;;;;-3.18;64.33;95044.88;4917968;29;20498;-81
2022/01/30 07:33:26;;;;;;;34.22;12.13;;;;;;;-2.06;64.36;95193.34;4932523;29;20039;-81
2022/01/30 07:35:54;;;;;;;31.10;12.98;;;;;;;-1.92;63.93;95199.41;4918024;29;20040;-81
2022/01/30 07:38:21;;;;;;;30.83;12.57;;;;;;;-1.83;62.05;95208.59;4920029;29;20511;-81
2022/01/30 07:40:47;;;;;;;34.95;13.48;;;;;;;-1.34;62.36;95270.75;4933835;29;20424;-81
2022/01/30 07:43:13;;;;;;;22.77;11.88;;;;;;;-1.09;63.62;95315.25;4915662;29;20434;-81
2022/01/30 07:45:38;;;;;;;33.47;12.98;;;;;;;-1.86;63.28;95172.63;4916927;29;20136;-81
2022/01/30 07:48:04;;;;;;;30.70;14.75;;;;;;;-1.17;63.66;95279.78;4915573;29;20040;-82
2022/01/30 07:50:29;;;;;;;26.30;11.65;;;;;;;-2.02;62.40;95150.38;4917515;29;20051;-82
2022/01/30 07:52:55;;;;;;;46.13;15.00;;;;;;;-1.29;61.54;95247.53;4917459;29;20032;-81
2022/01/30 07:55:21;;;;;;;37.35;14.27;;;;;;;-1.51;62.24;95172.47;4917022;29;20040;-81
2022/01/30 07:57:46;;;;;;;31.25;13.93;;;;;;;-1.05;62.93;95245.34;4930850;29;20431;-81
2022/01/30 08:00:13;;;;;;;42.13;14.02;;;;;;;-0.93;62.19;95252.38;4916509;29;20059;-81
2022/01/30 08:02:39;;;;;;;32.20;14.05;;;;;;;-1.12;61.66;95241.94;4916651;29;20036;-81
2022/01/30 08:05:04;;;;;;;30.48;13.52;;;;;;;-1.34;62.38;95197.91;4915550;29;20043;-81
2022/01/30 08:07:31;;;;;;;30.67;13.73;;;;;;;-1.22;61.77;95193.69;4915867;29;20043;-81
2022/01/30 08:09:56;;;;;;;39.72;15.65;;;;;;;-1.43;61.62;95136.66;4947338;29;20043;-81
2022/01/30 08:12:22;;;;;;;31.77;14.30;;;;;;;-1.32;61.05;95148.28;4916853;29;20036;-81
2022/01/30 08:14:48;;;;;;;35.72;15.57;;;;;;;-1.56;61.48;95134.06;4930897;29;20538;-81
2022/01/30 08:17:20;;;;;;;38.17;14.73;;;;;;;-1.13;61.46;95162.25;4916678;29;20439;-81
2022/01/30 08:19:46;;;;;;;53.58;15.68;;;;;;;-1.22;61.30;95141.66;4915405;29;20039;-81
2022/01/30 08:22:12;;;;;;;37.83;15.73;;;;;;;-1.08;61.90;95184.09;4916629;29;20400;-81
2022/01/30 08:24:38;;;;;;;39.75;14.55;;;;;;;-0.80;61.45;95223.72;4916354;29;20098;-82
2022/01/30 08:27:04;;;;;;;37.10;14.82;;;;;;;-0.51;61.94;95252.94;4916305;29;20217;-81
2022/01/30 08:29:30;;;;;;;35.55;14.88;;;;;;;-1.00;61.40;95164.88;4916517;29;20114;-81
2022/01/30 08:31:56;;;;;;;37.53;14.95;;;;;;;-1.50;62.00;95155.88;4916711;29;20110;-81
2022/01/30 08:34:23;;;;;;;36.50;14.93;;;;;;;-0.91;62.37;95229.53;4530446;28;10001321;-81
2022/01/30 08:36:49;;;;;;;38.83;17.45;;;;;;;-1.07;62.42;95206.53;678831;28;10001973;-81
2022/01/30 08:39:14;;;;;;;36.85;16.60;;;;;;;-0.71;62.11;95221.72;4950001;28;20794;-81
2022/01/30 08:41:39;;;;;;;42.60;17.70;;;;;;;-1.36;61.52;95141.84;4933504;29;20094;-81
2022/01/30 08:44:05;;;;;;;36.58;15.65;;;;;;;-0.74;62.04;95271.59;4949720;28;20027;-81
2022/01/30 08:46:30;;;;;;;35.05;15.10;;;;;;;-1.08;62.12;95217.94;4935093;29;20031;-82
2022/01/30 08:48:56;;;;;;;38.03;16.50;;;;;;;-1.21;61.79;95197.09;4935126;29;20175;-82
2022/01/30 08:51:22;;;;;;;33.53;15.60;;;;;;;-1.37;62.01;95176.66;4934916;29;20036;-82
2022/01/30 08:53:48;;;;;;;55.08;17.92;;;;;;;-0.59;62.02;95255.75;4934781;29;20036;-82
2022/01/30 08:56:13;;;;;;;41.42;18.27;;;;;;;-1.34;61.77;95134.66;4949456;28;20147;-82
2022/01/30 08:58:39;;;;;;;41.65;17.25;;;;;;;-0.46;62.46;95260.97;4965358;28;20031;-81
2022/01/30 09:01:05;;;;;;;35.15;16.15;;;;;;;-0.83;62.16;95189.47;4965010;28;20060;-82
2022/01/30 09:03:30;;;;;;;39.60;17.67;;;;;;;-0.80;63.05;95194.28;4934294;29;20039;-82
2022/01/30 09:05:55;;;;;;;45.50;17.88;;;;;;;-1.07;61.54;95130.25;4934269;29;20068;-82
2022/01/30 09:08:21;;;;;;;40.50;16.52;;;;;;;-0.24;61.92;95225.84;4964568;28;20106;-82
2022/01/30 09:10:46;;;;;;;44.30;19.30;;;;;;;-0.63;61.13;95205.06;4949286;29;20040;-82
2022/01/30 09:13:12;;;;;;;54.63;19.88;;;;;;;-0.87;61.27;95100.56;4934165;29;20035;-82
2022/01/30 09:15:40;;;;;;;56.60;22.33;;;;;;;-0.45;62.64;95150.50;4934472;29;20083;-82
2022/01/30 09:18:09;;;;;;;68.93;20.92;;;;;;;-0.06;61.30;95171.22;4965195;28;20055;-82
2022/01/30 09:20:42;;;;;;;47.33;21.13;;;;;;;0.41;60.58;95251.84;4935138;29;20099;-82
2022/01/30 09:23:10;;;;;;;50.35;20.90;;;;;;;0.25;61.37;95263.56;4933125;29;20044;-81
2022/01/30 09:25:37;;;;;;;39.42;17.17;;;;;;;-0.26;60.36;95160.06;4934148;29;20066;-81
2022/01/30 09:28:04;;;;;;;49.50;16.90;;;;;;;0.28;60.12;95250.09;4934431;28;20115;-81
2022/01/30 09:30:30;;;;;;;35.42;15.05;;;;;;;0.40;60.30;95235.38;4934602;29;20027;-81
2022/01/30 09:32:56;;;;;;;37.75;15.27;;;;;;;0.43;59.77;95218.53;4965081;28;20035;-81
2022/01/30 09:35:22;;;;;;;36.10;14.55;;;;;;;0.17;59.25;95151.63;4948516;28;20126;-80
2022/01/30 09:37:48;;;;;;;39.15;13.75;;;;;;;-0.06;59.71;95111.25;4934458;29;20070;-80
2022/01/30 09:40:14;;;;;;;35.03;14.27;;;;;;;-0.10;59.55;95111.88;4949026;28;20067;-80
2022/01/30 09:42:43;;;;;;;32.88;12.48;;;;;;;0.53;58.74;95187.56;4933816;29;20062;-81
2022/01/30 09:45:10;;;;;;;31.08;11.63;;;;;;;-0.20;59.47;95065.41;4932978;29;20489;-80
2022/01/30 09:47:36;;;;;;;34.30;12.18;;;;;;;-0.15;60.33;95054.34;4933079;29;20019;-81
2022/01/30 09:50:04;;;;;;;27.48;12.13;;;;;;;0.24;59.14;95102.84;4934121;29;20066;-81
2022/01/30 09:52:30;;;;;;;29.48;11.38;;;;;;;0.24;59.52;95095.00;4932628;29;20046;-81
2022/01/30 09:54:55;;;;;;;37.90;13.23;;;;;;;0.33;58.63;95098.97;4964211;28;20044;-80
2022/01/30 09:57:21;;;;;;;32.53;12.98;;;;;;;0.75;58.76;95170.53;4948639;29;20118;-81
2022/01/30 09:59:47;;;;;;;24.85;11.30;;;;;;;0.63;59.86;95141.69;4934281;29;20058;-80
2022/01/30 10:02:14;;;;;;;31.45;10.18;;;;;;;0.28;58.89;95064.91;4964681;28;20368;-80
2022/01/30 10:04:40;;;;;;;27.52;10.73;;;;;;;0.58;59.13;95125.88;4964528;28;20518;-80
2022/01/30 10:07:15;;;;;;;37.40;10.90;;;;;;;-0.51;58.86;94953.34;4934271;29;20038;-81
2022/01/30 10:09:49;;;;;;;42.53;13.20;;;;;;;0.68;58.43;95087.06;4934186;29;20032;-80
2022/01/30 10:12:20;;;;;;;32.35;11.77;;;;;;;0.62;59.40;95095.72;4964400;28;20046;-80
2022/01/30 10:14:58;;;;;;;29.10;12.20;;;;;;;0.85;58.93;95116.00;4964548;28;20028;-81
2022/01/30 10:17:34;;;;;;;30.30;11.27;;;;;;;0.11;59.00;94983.78;4934188;29;20118;-81
2022/01/30 10:20:09;;;;;;;36.50;14.55;;;;;;;0.89;58.08;95074.63;4934345;29;20035;-81
2022/01/30 10:22:57;;;;;;;41.20;14.65;;;;;;;0.52;57.86;95011.94;4934020;29;20513;-81
2022/01/30 10:25:26;;;;;;;57.35;16.48;;;;;;;1.65;57.09;95135.09;4964393;28;20040;-81
2022/01/30 10:28:10;;;;;;;52.97;15.50;;;;;;;2.13;55.81;95072.34;4934487;29;20515;-81
2022/01/30 10:30:44;;;;;;;50.30;16.13;;;;;;;3.67;53.29;95126.13;4964597;28;20027;-82
2022/01/30 10:33:12;;;;;;;48.78;14.40;;;;;;;4.24;49.29;95011.47;4964493;28;20032;-81
2022/01/30 10:35:58;;;;;;;33.25;13.47;;;;;;;5.89;46.54;95072.91;1169144;28;10022741;-80
2022/01/30 10:38:32;;;;;;;36.95;15.65;;;;;;;7.02;44.67;95080.81;4606414;29;10001642;-80
2022/01/30 10:41:10;;;;;;;41.15;14.48;;;;;;;7.43;43.94;94989.50;4918712;29;20028;-80
2022/01/30 10:44:00;;;;;;;47.97;15.95;;;;;;;8.43;40.86;95030.47;4919259;29;20039;-82
2022/01/30 10:46:30;;;;;;;32.08;14.32;;;;;;;8.42;39.13;95011.16;4924879;29;20028;-82
2022/01/30 10:49:01;;;;;;;34.75;14.85;;;;;;;7.82;39.17;94979.34;4951456;29;20067;-81
2022/01/30 10:51:28;;;;;;;37.25;15.07;;;;;;;8.83;40.40;95037.59;4919304;29;20040;-81
2022/01/30 10:53:56;;;;;;;38.10;14.85;;;;;;;8.38;39.96;94909.69;4949516;29;20099;-81
2022/01/30 10:56:26;;;;;;;41.90;14.75;;;;;;;9.19;37.88;94967.72;4918727;29;20044;-81
2022/01/30 10:59:06;;;;;;;32.05;13.63;;;;;;;9.49;38.66;95054.16;4918260;29;20027;-81
2022/01/30 11:01:32;;;;;;;40.22;14.32;;;;;;;8.97;38.04;94932.06;4917610;29;20059;-81
2022/01/30 11:04:00;;;;;;;31.17;14.70;;;;;;;9.05;38.08;94981.78;4916504;29;20036;-80
2022/01/30 11:06:30;;;;;;;45.13;15.38;;;;;;;9.17;39.09;94996.28;4917828;29;20413;-80
2022/01/30 11:09:12;;;;;;;32.08;13.55;;;;;;;9.51;38.03;95043.31;4915975;29;20042;-81
2022/01/30 11:11:45;;;;;;;30.10;15.38;;;;;;;8.63;39.26;94939.78;4917771;29;20039;-81
2022/01/30 11:19:23;;;;;;;40.30;14.55;;;;;;;8.72;38.73;94954.06;4917149;29;20509;-80
2022/01/30 11:21:58;;;;;;;34.35;15.15;;;;;;;-143.51;100.00;62207.84;4947270;29;20209;-81
2022/01/30 11:24:25;;;;;;;34.75;14.43;;;;;;;-143.51;100.00;62207.84;4946563;28;20044;-81
2022/01/30 11:26:51;;;;;;;33.17;15.07;;;;;;;-143.51;100.00;62207.84;4918164;29;20036;-87
2022/01/30 11:29:20;;;;;;;48.17;15.05;;;;;;;-143.51;100.00;62207.84;4916701;29;20040;-81
2022/01/30 11:31:47;;;;;;;37.58;14.02;;;;;;;-143.51;100.00;62207.84;4916941;29;20040;-80
2022/01/30 11:34:13;;;;;;;51.35;14.10;;;;;;;-143.51;100.00;62207.84;4917099;29;20437;-81
2022/01/30 11:36:42;;;;;;;37.38;14.65;;;;;;;-143.51;100.00;62207.84;4917286;29;20044;-80
2022/01/30 11:39:12;;;;;;;44.58;15.18;;;;;;;-143.51;100.00;62207.84;4916497;29;20068;-80
2022/01/30 11:41:38;;;;;;;40.55;15.38;;;;;;;-143.51;100.00;62207.84;4917406;29;20103;-80
2022/01/30 11:44:19;;;;;;;45.95;15.63;;;;;;;-143.51;100.00;62207.84;4916779;29;20074;-80
2022/01/30 11:46:52;;;;;;;41.97;17.00;;;;;;;-143.51;100.00;62207.84;4916942;29;20127;-81
2022/01/30 11:49:18;;;;;;;36.88;14.85;;;;;;;-143.51;100.00;62207.84;4947064;28;20571;-81
2022/01/30 11:51:51;;;;;;;31.45;13.77;;;;;;;-143.51;100.00;62207.84;4917499;29;20076;-80
2022/01/30 11:54:38;;;;;;;36.92;14.95;;;;;;;-143.51;100.00;62207.84;4917575;29;20495;-80
2022/01/30 11:57:27;;;;;;;36.90;15.23;;;;;;;-143.51;100.00;62207.84;4947216;29;20111;-81
2022/01/30 12:00:00;;;;;;;34.97;14.52;;;;;;;-143.51;100.00;62207.84;4916575;29;20131;-82
2022/01/30 12:02:31;;;;;;;46.05;16.55;;;;;;;-143.51;100.00;62207.84;4914708;29;20040;-81
2022/01/30 12:05:05;;;;;;;50.63;17.88;;;;;;;-143.51;100.00;62207.84;4946910;29;20036;-81
2022/01/30 12:07:33;;;;;;;40.38;15.45;;;;;;;-143.51;100.00;62207.84;4947021;29;20040;-81
2022/01/30 12:10:21;;;;;;;40.08;16.70;;;;;;;-143.51;100.00;62207.84;4946760;28;20491;-81
2022/01/30 12:12:50;;;;;;;41.60;15.75;;;;;;;-143.51;100.00;62207.84;4946735;29;20036;-81
2022/01/30 12:15:36;;;;;;;42.75;16.48;;;;;;;-143.51;100.00;62207.84;4946887;29;20580;-82
2022/01/30 12:18:03;;;;;;;39.22;16.88;;;;;;;-143.51;100.00;62207.84;4916476;29;20472;-81
2022/01/30 12:20:31;;;;;;;39.05;16.25;;;;;;;-143.51;100.00;62207.84;4914661;29;20047;-81